sensor_id;sensor_type;location;lat;lon;timestamp;pressure;altitude;pressure_sealevel;temperature
77728;BMP280;68312;53.502;10.030;2023-08-01T00:01:31;99929.19;;;16.26
77728;BMP280;68312;53.502;10.030;2023-08-01T00:03:57;99918.53;;;16.22
77728;BMP280;68312;53.502;10.030;2023-08-01T00:06:22;99914.78;;;16.23
77728;BMP280;68312;53.502;10.030;2023-08-01T00:08:50;99909.44;;;16.16
77728;BMP280;68312;53.502;10.030;2023-08-01T00:11:16;99903.75;;;16.11
77728;BMP280;68312;53.502;10.030;2023-08-01T00:13:41;99898.06;;;16.06
77728;BMP280;68312;53.502;10.030;2023-08-01T00:16:06;99894.63;;;16.02
77728;BMP280;68312;53.502;10.030;2023-08-01T00:18:32;99896.53;;;16.01
77728;BMP280;68312;53.502;10.030;2023-08-01T00:20:57;99881.38;;;16.02
77728;BMP280;68312;53.502;10.030;2023-08-01T00:23:24;99891.22;;;16.01
77728;BMP280;68312;53.502;10.030;2023-08-01T00:25:49;99869.63;;;15.99
77728;BMP280;68312;53.502;10.030;2023-08-01T00:28:21;99854.88;;;15.98
77728;BMP280;68312;53.502;10.030;2023-08-01T00:30:47;99857.53;;;15.98
77728;BMP280;68312;53.502;10.030;2023-08-01T00:33:13;99848.44;;;15.99
77728;BMP280;68312;53.502;10.030;2023-08-01T00:35:40;99847.69;;;15.99
77728;BMP280;68312;53.502;10.030;2023-08-01T00:38:06;99839.00;;;15.98
77728;BMP280;68312;53.502;10.030;2023-08-01T00:40:32;99843.53;;;15.98
77728;BMP280;68312;53.502;10.030;2023-08-01T00:42:58;99829.50;;;15.97
77728;BMP280;68312;53.502;10.030;2023-08-01T00:45:24;99825.38;;;15.96
77728;BMP280;68312;53.502;10.030;2023-08-01T00:47:52;99823.09;;;15.98
77728;BMP280;68312;53.502;10.030;2023-08-01T00:50:18;99819.31;;;15.99
77728;BMP280;68312;53.502;10.030;2023-08-01T00:52:47;99828.41;;;16.02
77728;BMP280;68312;53.502;10.030;2023-08-01T00:55:17;99825.38;;;16.03
77728;BMP280;68312;53.502;10.030;2023-08-01T00:57:43;99826.91;;;16.04
77728;BMP280;68312;53.502;10.030;2023-08-01T01:00:09;99821.22;;;16.02
77728;BMP280;68312;53.502;10.030;2023-08-01T01:02:36;99813.28;;;16.02
77728;BMP280;68312;53.502;10.030;2023-08-01T01:05:02;99810.63;;;16.02
77728;BMP280;68312;53.502;10.030;2023-08-01T01:07:29;99815.19;;;16.05
77728;BMP280;68312;53.502;10.030;2023-08-01T01:09:57;99811.00;;;16.01
77728;BMP280;68312;53.502;10.030;2023-08-01T01:12:23;99800.78;;;15.99
77728;BMP280;68312;53.502;10.030;2023-08-01T01:14:49;99794.38;;;16.00
77728;BMP280;68312;53.502;10.030;2023-08-01T01:17:14;99803.44;;;16.03
77728;BMP280;68312;53.502;10.030;2023-08-01T01:19:40;99794.34;;;16.04
77728;BMP280;68312;53.502;10.030;2023-08-01T01:22:07;99793.22;;;16.08
77728;BMP280;68312;53.502;10.030;2023-08-01T01:24:35;99790.97;;;16.13
77728;BMP280;68312;53.502;10.030;2023-08-01T01:27:04;99780.75;;;16.12
77728;BMP280;68312;53.502;10.030;2023-08-01T01:29:32;99773.97;;;16.11
77728;BMP280;68312;53.502;10.030;2023-08-01T01:32:02;99769.44;;;16.15
77728;BMP280;68312;53.502;10.030;2023-08-01T01:34:29;99768.66;;;16.18
77728;BMP280;68312;53.502;10.030;2023-08-01T01:36:55;99764.09;;;16.18
77728;BMP280;68312;53.502;10.030;2023-08-01T01:39:20;99755.81;;;16.23
77728;BMP280;68312;53.502;10.030;2023-08-01T01:41:46;99756.94;;;16.19
77728;BMP280;68312;53.502;10.030;2023-08-01T01:44:11;99755.41;;;16.18
77728;BMP280;68312;53.502;10.030;2023-08-01T01:46:37;99753.94;;;16.17
77728;BMP280;68312;53.502;10.030;2023-08-01T01:49:02;99749.00;;;16.15
77728;BMP280;68312;53.502;10.030;2023-08-01T01:51:29;99745.19;;;16.13
77728;BMP280;68312;53.502;10.030;2023-08-01T01:53:55;99745.19;;;16.13
77728;BMP280;68312;53.502;10.030;2023-08-01T01:56:21;99741.03;;;16.12
77728;BMP280;68312;53.502;10.030;2023-08-01T01:58:46;99730.03;;;16.10
77728;BMP280;68312;53.502;10.030;2023-08-01T02:01:12;99738.75;;;16.14
77728;BMP280;68312;53.502;10.030;2023-08-01T02:03:37;99741.03;;;16.12
77728;BMP280;68312;53.502;10.030;2023-08-01T02:06:03;99728.53;;;16.12
77728;BMP280;68312;53.502;10.030;2023-08-01T02:08:29;99718.69;;;16.13
77728;BMP280;68312;53.502;10.030;2023-08-01T02:10:55;99714.16;;;16.13
77728;BMP280;68312;53.502;10.030;2023-08-01T02:13:23;99722.09;;;16.13
77728;BMP280;68312;53.502;10.030;2023-08-01T02:15:49;99723.25;;;16.16
77728;BMP280;68312;53.502;10.030;2023-08-01T02:18:14;99724.38;;;16.18
77728;BMP280;68312;53.502;10.030;2023-08-01T02:20:40;99716.44;;;16.22
77728;BMP280;68312;53.502;10.030;2023-08-01T02:23:05;99716.81;;;16.24
77728;BMP280;68312;53.502;10.030;2023-08-01T02:25:31;99706.97;;;16.24
77728;BMP280;68312;53.502;10.030;2023-08-01T02:27:56;99705.47;;;16.23
77728;BMP280;68312;53.502;10.030;2023-08-01T02:30:21;99702.06;;;16.26
77728;BMP280;68312;53.502;10.030;2023-08-01T02:32:47;99697.53;;;16.27
77728;BMP280;68312;53.502;10.030;2023-08-01T02:35:12;99700.94;;;16.27
77728;BMP280;68312;53.502;10.030;2023-08-01T02:37:38;99699.78;;;16.25
77728;BMP280;68312;53.502;10.030;2023-08-01T02:40:04;99696.78;;;16.30
77728;BMP280;68312;53.502;10.030;2023-08-01T02:42:32;99700.94;;;16.31
77728;BMP280;68312;53.502;10.030;2023-08-01T02:44:58;99678.63;;;16.32
77728;BMP280;68312;53.502;10.030;2023-08-01T02:47:24;99681.97;;;16.29
77728;BMP280;68312;53.502;10.030;2023-08-01T02:49:49;99675.56;;;16.26
77728;BMP280;68312;53.502;10.030;2023-08-01T02:52:14;99693.72;;;16.28
77728;BMP280;68312;53.502;10.030;2023-08-01T02:54:40;99677.81;;;16.28
77728;BMP280;68312;53.502;10.030;2023-08-01T02:57:05;99679.72;;;16.27
77728;BMP280;68312;53.502;10.030;2023-08-01T02:59:31;99680.13;;;16.26
77728;BMP280;68312;53.502;10.030;2023-08-01T03:01:59;99674.06;;;16.25
77728;BMP280;68312;53.502;10.030;2023-08-01T03:04:24;99694.13;;;16.26
77728;BMP280;68312;53.502;10.030;2023-08-01T03:06:50;99680.13;;;16.26
77728;BMP280;68312;53.502;10.030;2023-08-01T03:09:15;99671.78;;;16.24
77728;BMP280;68312;53.502;10.030;2023-08-01T03:11:41;99666.47;;;16.24
77728;BMP280;68312;53.502;10.030;2023-08-01T03:14:07;99664.56;;;16.24
77728;BMP280;68312;53.502;10.030;2023-08-01T03:16:32;99659.28;;;16.24
77728;BMP280;68312;53.502;10.030;2023-08-01T03:18:58;99655.13;;;16.23
77728;BMP280;68312;53.502;10.030;2023-08-01T03:21:31;99656.25;;;16.22
77728;BMP280;68312;53.502;10.030;2023-08-01T03:23:57;99658.91;;;16.26
77728;BMP280;68312;53.502;10.030;2023-08-01T03:26:22;99650.22;;;16.22
77728;BMP280;68312;53.502;10.030;2023-08-01T03:28:48;99660.03;;;16.25
77728;BMP280;68312;53.502;10.030;2023-08-01T03:31:13;99659.28;;;16.24
77728;BMP280;68312;53.502;10.030;2023-08-01T03:33:39;99649.81;;;16.23
77728;BMP280;68312;53.502;10.030;2023-08-01T03:36:04;99651.69;;;16.23
77728;BMP280;68312;53.502;10.030;2023-08-01T03:38:30;99644.53;;;16.23
77728;BMP280;68312;53.502;10.030;2023-08-01T03:40:55;99646.78;;;16.25
77728;BMP280;68312;53.502;10.030;2023-08-01T03:43:21;99643.38;;;16.28
77728;BMP280;68312;53.502;10.030;2023-08-01T03:45:49;99639.22;;;16.27
77728;BMP280;68312;53.502;10.030;2023-08-01T03:48:18;99636.19;;;16.28
77728;BMP280;68312;53.502;10.030;2023-08-01T03:50:43;99633.94;;;16.27
77728;BMP280;68312;53.502;10.030;2023-08-01T03:53:09;99636.59;;;16.27
77728;BMP280;68312;53.502;10.030;2023-08-01T03:55:37;99636.97;;;16.25
77728;BMP280;68312;53.502;10.030;2023-08-01T03:58:02;99644.53;;;16.27
77728;BMP280;68312;53.502;10.030;2023-08-01T04:00:28;99640.72;;;16.28
77728;BMP280;68312;53.502;10.030;2023-08-01T04:03:00;99633.53;;;16.28
77728;BMP280;68312;53.502;10.030;2023-08-01T04:05:29;99627.47;;;16.28
77728;BMP280;68312;53.502;10.030;2023-08-01T04:07:55;99630.13;;;16.28
77728;BMP280;68312;53.502;10.030;2023-08-01T04:10:21;99638.09;;;16.28
77728;BMP280;68312;53.502;10.030;2023-08-01T04:12:47;99629.03;;;16.25
77728;BMP280;68312;53.502;10.030;2023-08-01T04:15:12;99640.38;;;16.26
77728;BMP280;68312;53.502;10.030;2023-08-01T04:17:37;99639.97;;;16.24
77728;BMP280;68312;53.502;10.030;2023-08-01T04:20:03;99631.28;;;16.27
77728;BMP280;68312;53.502;10.030;2023-08-01T04:22:29;99636.19;;;16.25
77728;BMP280;68312;53.502;10.030;2023-08-01T04:24:54;99627.47;;;16.24
77728;BMP280;68312;53.502;10.030;2023-08-01T04:27:20;99631.66;;;16.25
77728;BMP280;68312;53.502;10.030;2023-08-01T04:29:45;99634.69;;;16.27
77728;BMP280;68312;53.502;10.030;2023-08-01T04:32:11;99637.34;;;16.27
77728;BMP280;68312;53.502;10.030;2023-08-01T04:34:39;99639.59;;;16.29
77728;BMP280;68312;53.502;10.030;2023-08-01T04:37:04;99644.53;;;16.30
77728;BMP280;68312;53.502;10.030;2023-08-01T04:39:30;99643.00;;;16.33
77728;BMP280;68312;53.502;10.030;2023-08-01T04:41:58;99635.78;;;16.33
77728;BMP280;68312;53.502;10.030;2023-08-01T04:44:23;99632.78;;;16.34
77728;BMP280;68312;53.502;10.030;2023-08-01T04:46:49;99636.19;;;16.38
77728;BMP280;68312;53.502;10.030;2023-08-01T04:49:14;99644.13;;;16.38
77728;BMP280;68312;53.502;10.030;2023-08-01T04:51:40;99644.13;;;16.38
77728;BMP280;68312;53.502;10.030;2023-08-01T04:54:05;99646.03;;;16.41
77728;BMP280;68312;53.502;10.030;2023-08-01T04:56:31;99630.88;;;16.42
77728;BMP280;68312;53.502;10.030;2023-08-01T04:58:56;99629.72;;;16.43
77728;BMP280;68312;53.502;10.030;2023-08-01T05:01:22;99633.53;;;16.42
77728;BMP280;68312;53.502;10.030;2023-08-01T05:03:47;99632.78;;;16.48
77728;BMP280;68312;53.502;10.030;2023-08-01T05:06:13;99632.00;;;16.51
77728;BMP280;68312;53.502;10.030;2023-08-01T05:08:39;99622.53;;;16.57
77728;BMP280;68312;53.502;10.030;2023-08-01T05:11:04;99615.31;;;16.54
77728;BMP280;68312;53.502;10.030;2023-08-01T05:13:29;99611.91;;;16.57
77728;BMP280;68312;53.502;10.030;2023-08-01T05:15:56;99614.16;;;16.62
77728;BMP280;68312;53.502;10.030;2023-08-01T05:18:21;99624.78;;;16.65
77728;BMP280;68312;53.502;10.030;2023-08-01T05:20:47;99627.81;;;16.64
77728;BMP280;68312;53.502;10.030;2023-08-01T05:23:12;99624.81;;;16.59
77728;BMP280;68312;53.502;10.030;2023-08-01T05:25:38;99628.97;;;16.60
77728;BMP280;68312;53.502;10.030;2023-08-01T05:28:03;99627.06;;;16.60
77728;BMP280;68312;53.502;10.030;2023-08-01T05:30:28;99620.25;;;16.59
77728;BMP280;68312;53.502;10.030;2023-08-01T05:32:54;99622.16;;;16.59
77728;BMP280;68312;53.502;10.030;2023-08-01T05:35:19;99624.81;;;16.59
77728;BMP280;68312;53.502;10.030;2023-08-01T05:37:46;99621.00;;;16.60
77728;BMP280;68312;53.502;10.030;2023-08-01T05:40:12;99630.88;;;16.59
77728;BMP280;68312;53.502;10.030;2023-08-01T05:42:37;99627.06;;;16.60
77728;BMP280;68312;53.502;10.030;2023-08-01T05:45:03;99627.41;;;16.69
77728;BMP280;68312;53.502;10.030;2023-08-01T05:47:30;99626.28;;;16.66
77728;BMP280;68312;53.502;10.030;2023-08-01T05:49:56;99630.84;;;16.66
77728;BMP280;68312;53.502;10.030;2023-08-01T05:52:22;99630.84;;;16.69
77728;BMP280;68312;53.502;10.030;2023-08-01T05:54:47;99629.28;;;16.75
77728;BMP280;68312;53.502;10.030;2023-08-01T05:57:13;99639.91;;;16.79
77728;BMP280;68312;53.502;10.030;2023-08-01T05:59:38;99638.00;;;16.79
77728;BMP280;68312;53.502;10.030;2023-08-01T06:02:04;99630.03;;;16.79
77728;BMP280;68312;53.502;10.030;2023-08-01T06:04:29;99633.88;;;16.71
77728;BMP280;68312;53.502;10.030;2023-08-01T06:06:55;99631.97;;;16.68
77728;BMP280;68312;53.502;10.030;2023-08-01T06:09:21;99627.44;;;16.65
77728;BMP280;68312;53.502;10.030;2023-08-01T06:11:46;99626.31;;;16.63
77728;BMP280;68312;53.502;10.030;2023-08-01T06:14:12;99635.78;;;16.57
77728;BMP280;68312;53.502;10.030;2023-08-01T06:16:38;99620.25;;;16.69
77728;BMP280;68312;53.502;10.030;2023-08-01T06:19:03;99625.13;;;16.74
77728;BMP280;68312;53.502;10.030;2023-08-01T06:21:30;99626.22;;;16.84
77728;BMP280;68312;53.502;10.030;2023-08-01T06:23:57;99624.69;;;16.93
77728;BMP280;68312;53.502;10.030;2023-08-01T06:26:25;99625.41;;;17.04
77728;BMP280;68312;53.502;10.030;2023-08-01T06:28:51;99623.09;;;17.16
77728;BMP280;68312;53.502;10.030;2023-08-01T06:31:19;99616.25;;;17.22
77728;BMP280;68312;53.502;10.030;2023-08-01T06:33:45;99616.94;;;17.33
77728;BMP280;68312;53.502;10.030;2023-08-01T06:36:11;99626.38;;;17.34
77728;BMP280;68312;53.502;10.030;2023-08-01T06:38:36;99623.00;;;17.30
77728;BMP280;68312;53.502;10.030;2023-08-01T06:41:01;99630.63;;;17.21
77728;BMP280;68312;53.502;10.030;2023-08-01T06:43:28;99640.50;;;17.17
77728;BMP280;68312;53.502;10.030;2023-08-01T06:45:53;99643.63;;;16.98
77728;BMP280;68312;53.502;10.030;2023-08-01T06:48:19;99644.03;;;16.90
77728;BMP280;68312;53.502;10.030;2023-08-01T06:50:44;99636.13;;;16.80
77728;BMP280;68312;53.502;10.030;2023-08-01T06:53:09;99644.44;;;16.75
77728;BMP280;68312;53.502;10.030;2023-08-01T06:55:35;99641.00;;;16.81
77728;BMP280;68312;53.502;10.030;2023-08-01T06:58:00;99643.28;;;16.93
77728;BMP280;68312;53.502;10.030;2023-08-01T07:00:26;99646.63;;;17.00
77728;BMP280;68312;53.502;10.030;2023-08-01T07:02:51;99652.66;;;17.11
77728;BMP280;68312;53.502;10.030;2023-08-01T07:05:17;99654.56;;;17.17
77728;BMP280;68312;53.502;10.030;2023-08-01T07:07:43;99647.34;;;17.18
77728;BMP280;68312;53.502;10.030;2023-08-01T07:10:08;99649.63;;;17.13
77728;BMP280;68312;53.502;10.030;2023-08-01T07:12:34;99651.09;;;17.24
77728;BMP280;68312;53.502;10.030;2023-08-01T07:14:59;99649.16;;;17.35
77728;BMP280;68312;53.502;10.030;2023-08-01T07:17:25;99643.00;;;17.48
77728;BMP280;68312;53.502;10.030;2023-08-01T07:19:50;99650.94;;;17.55
77728;BMP280;68312;53.502;10.030;2023-08-01T07:22:15;99641.75;;;17.66
77728;BMP280;68312;53.502;10.030;2023-08-01T07:24:41;99655.59;;;17.37
77728;BMP280;68312;53.502;10.030;2023-08-01T07:27:06;99642.97;;;17.55
77728;BMP280;68312;53.502;10.030;2023-08-01T07:29:32;99639.25;;;17.42
77728;BMP280;68312;53.502;10.030;2023-08-01T07:31:57;99659.00;;;17.38
77728;BMP280;68312;53.502;10.030;2023-08-01T07:34:22;99647.97;;;17.46
77728;BMP280;68312;53.502;10.030;2023-08-01T07:36:48;99649.88;;;17.39
77728;BMP280;68312;53.502;10.030;2023-08-01T07:39:15;99645.28;;;17.49
77728;BMP280;68312;53.502;10.030;2023-08-01T07:41:41;99641.84;;;17.52
77728;BMP280;68312;53.502;10.030;2023-08-01T07:44:07;99648.53;;;17.74
77728;BMP280;68312;53.502;10.030;2023-08-01T07:46:33;99652.50;;;17.99
77728;BMP280;68312;53.502;10.030;2023-08-01T07:48:58;99649.97;;;17.85
77728;BMP280;68312;53.502;10.030;2023-08-01T07:51:27;99652.03;;;17.64
77728;BMP280;68312;53.502;10.030;2023-08-01T07:53:54;99647.38;;;17.75
77728;BMP280;68312;53.502;10.030;2023-08-01T07:56:20;99652.19;;;17.93
77728;BMP280;68312;53.502;10.030;2023-08-01T07:58:46;99644.06;;;18.14
77728;BMP280;68312;53.502;10.030;2023-08-01T08:01:12;99646.13;;;18.36
77728;BMP280;68312;53.502;10.030;2023-08-01T08:03:38;99638.94;;;18.70
77728;BMP280;68312;53.502;10.030;2023-08-01T08:06:03;99636.81;;;18.87
77728;BMP280;68312;53.502;10.030;2023-08-01T08:08:30;99646.09;;;19.35
77728;BMP280;68312;53.502;10.030;2023-08-01T08:10:58;99641.31;;;19.72
77728;BMP280;68312;53.502;10.030;2023-08-01T08:13:24;99640.16;;;19.76
77728;BMP280;68312;53.502;10.030;2023-08-01T08:15:50;99646.22;;;19.50
77728;BMP280;68312;53.502;10.030;2023-08-01T08:18:16;99647.19;;;19.37
77728;BMP280;68312;53.502;10.030;2023-08-01T08:20:44;99648.50;;;19.26
77728;BMP280;68312;53.502;10.030;2023-08-01T08:23:11;99638.72;;;19.16
77728;BMP280;68312;53.502;10.030;2023-08-01T08:25:44;99646.19;;;18.98
77728;BMP280;68312;53.502;10.030;2023-08-01T08:28:12;99646.06;;;18.79
77728;BMP280;68312;53.502;10.030;2023-08-01T08:30:38;99653.25;;;18.46
77728;BMP280;68312;53.502;10.030;2023-08-01T08:33:04;99647.38;;;18.61
77728;BMP280;68312;53.502;10.030;2023-08-01T08:35:32;99651.75;;;18.78
77728;BMP280;68312;53.502;10.030;2023-08-01T08:38:01;99653.44;;;19.24
77728;BMP280;68312;53.502;10.030;2023-08-01T08:40:27;99652.22;;;19.58
77728;BMP280;68312;53.502;10.030;2023-08-01T08:42:53;99647.69;;;19.55
77728;BMP280;68312;53.502;10.030;2023-08-01T08:45:19;99654.88;;;19.58
77728;BMP280;68312;53.502;10.030;2023-08-01T08:47:49;99650.00;;;19.53
77728;BMP280;68312;53.502;10.030;2023-08-01T08:50:20;99642.97;;;19.66
77728;BMP280;68312;53.502;10.030;2023-08-01T08:52:46;99644.53;;;19.86
77728;BMP280;68312;53.502;10.030;2023-08-01T08:55:12;99647.63;;;20.26
77728;BMP280;68312;53.502;10.030;2023-08-01T08:57:38;99644.22;;;20.83
77728;BMP280;68312;53.502;10.030;2023-08-01T09:00:05;99642.22;;;20.71
77728;BMP280;68312;53.502;10.030;2023-08-01T09:02:32;99638.84;;;21.21
77728;BMP280;68312;53.502;10.030;2023-08-01T09:04:58;99626.34;;;20.99
77728;BMP280;68312;53.502;10.030;2023-08-01T09:07:29;99634.81;;;20.59
77728;BMP280;68312;53.502;10.030;2023-08-01T09:09:58;99635.56;;;19.77
77728;BMP280;68312;53.502;10.030;2023-08-01T09:12:24;99646.09;;;19.61
77728;BMP280;68312;53.502;10.030;2023-08-01T09:14:52;99642.72;;;19.01
77728;BMP280;68312;53.502;10.030;2023-08-01T09:17:21;99645.72;;;18.74
77728;BMP280;68312;53.502;10.030;2023-08-01T09:19:47;99644.09;;;18.50
77728;BMP280;68312;53.502;10.030;2023-08-01T09:22:13;99641.59;;;18.33
77728;BMP280;68312;53.502;10.030;2023-08-01T09:24:50;99650.41;;;18.27
77728;BMP280;68312;53.502;10.030;2023-08-01T09:27:17;99648.13;;;18.25
77728;BMP280;68312;53.502;10.030;2023-08-01T09:29:42;99641.28;;;18.28
77728;BMP280;68312;53.502;10.030;2023-08-01T09:32:12;99635.28;;;18.17
77728;BMP280;68312;53.502;10.030;2023-08-01T09:34:39;99645.16;;;18.17
77728;BMP280;68312;53.502;10.030;2023-08-01T09:37:05;99644.09;;;18.07
77728;BMP280;68312;53.502;10.030;2023-08-01T09:39:31;99653.47;;;18.22
77728;BMP280;68312;53.502;10.030;2023-08-01T09:42:01;99649.56;;;18.70
77728;BMP280;68312;53.502;10.030;2023-08-01T09:44:28;99645.00;;;19.81
77728;BMP280;68312;53.502;10.030;2023-08-01T09:47:02;99640.84;;;21.33
77728;BMP280;68312;53.502;10.030;2023-08-01T09:49:30;99631.38;;;22.35
77728;BMP280;68312;53.502;10.030;2023-08-01T09:51:57;99629.34;;;22.79
77728;BMP280;68312;53.502;10.030;2023-08-01T09:58:04;99617.97;;;23.24
77728;BMP280;68312;53.502;10.030;2023-08-01T10:00:32;99628.34;;;23.34
77728;BMP280;68312;53.502;10.030;2023-08-01T10:02:59;99620.34;;;23.22
77728;BMP280;68312;53.502;10.030;2023-08-01T10:05:29;99624.25;;;22.16
77728;BMP280;68312;53.502;10.030;2023-08-01T10:07:59;99633.69;;;21.46
77728;BMP280;68312;53.502;10.030;2023-08-01T10:10:26;99635.75;;;22.13
77728;BMP280;68312;53.502;10.030;2023-08-01T10:12:54;99619.47;;;22.64
77728;BMP280;68312;53.502;10.030;2023-08-01T10:15:21;99610.94;;;22.81
77728;BMP280;68312;53.502;10.030;2023-08-01T10:17:47;99613.03;;;24.23
77728;BMP280;68312;53.502;10.030;2023-08-01T10:20:13;99605.19;;;23.53
77728;BMP280;68312;53.502;10.030;2023-08-01T10:22:40;99613.88;;;22.18
77728;BMP280;68312;53.502;10.030;2023-08-01T10:25:08;99621.50;;;21.76
77728;BMP280;68312;53.502;10.030;2023-08-01T10:27:35;99620.22;;;22.64
77728;BMP280;68312;53.502;10.030;2023-08-01T10:30:03;99611.03;;;23.14
77728;BMP280;68312;53.502;10.030;2023-08-01T10:32:38;99613.91;;;23.44
77728;BMP280;68312;53.502;10.030;2023-08-01T10:35:05;99611.09;;;23.81
77728;BMP280;68312;53.502;10.030;2023-08-01T10:37:44;99611.84;;;23.48
77728;BMP280;68312;53.502;10.030;2023-08-01T10:40:12;99613.63;;;22.81
77728;BMP280;68312;53.502;10.030;2023-08-01T10:42:44;99614.75;;;22.80
77728;BMP280;68312;53.502;10.030;2023-08-01T10:45:22;99610.09;;;23.54
77728;BMP280;68312;53.502;10.030;2023-08-01T10:47:51;99612.19;;;24.26
77728;BMP280;68312;53.502;10.030;2023-08-01T10:50:17;99594.59;;;24.54
77728;BMP280;68312;53.502;10.030;2023-08-01T10:52:43;99604.19;;;23.71
77728;BMP280;68312;53.502;10.030;2023-08-01T10:55:10;99612.19;;;22.89
77728;BMP280;68312;53.502;10.030;2023-08-01T10:57:38;99616.84;;;23.13
77728;BMP280;68312;53.502;10.030;2023-08-01T11:00:15;99613.13;;;23.77
77728;BMP280;68312;53.502;10.030;2023-08-01T11:02:48;99613.53;;;24.90
77728;BMP280;68312;53.502;10.030;2023-08-01T11:05:17;99621.38;;;24.46
77728;BMP280;68312;53.502;10.030;2023-08-01T11:07:53;99606.38;;;24.78
77728;BMP280;68312;53.502;10.030;2023-08-01T11:10:27;99608.91;;;23.67
77728;BMP280;68312;53.502;10.030;2023-08-01T11:12:54;99647.28;;;21.67
77728;BMP280;68312;53.502;10.030;2023-08-01T11:15:20;99667.47;;;20.67
77728;BMP280;68312;53.502;10.030;2023-08-01T11:17:50;99676.88;;;19.62
77728;BMP280;68312;53.502;10.030;2023-08-01T11:20:18;99687.00;;;18.89
77728;BMP280;68312;53.502;10.030;2023-08-01T11:22:58;99701.81;;;18.10
77728;BMP280;68312;53.502;10.030;2023-08-01T11:25:41;99713.53;;;17.56
77728;BMP280;68312;53.502;10.030;2023-08-01T11:28:11;99727.22;;;17.40
77728;BMP280;68312;53.502;10.030;2023-08-01T11:30:38;99731.81;;;17.30
77728;BMP280;68312;53.502;10.030;2023-08-01T11:33:20;99727.41;;;16.82
77728;BMP280;68312;53.502;10.030;2023-08-01T11:35:54;99727.41;;;16.58
77728;BMP280;68312;53.502;10.030;2023-08-01T11:38:27;99724.41;;;16.56
77728;BMP280;68312;53.502;10.030;2023-08-01T11:40:59;99733.13;;;16.46
77728;BMP280;68312;53.502;10.030;2023-08-01T11:43:26;99725.16;;;16.53
77728;BMP280;68312;53.502;10.030;2023-08-01T11:46:13;99726.28;;;16.56
77728;BMP280;68312;53.502;10.030;2023-08-01T11:48:38;99735.41;;;16.55
77728;BMP280;68312;53.502;10.030;2023-08-01T11:51:04;99738.81;;;16.55
77728;BMP280;68312;53.502;10.030;2023-08-01T11:53:30;99726.69;;;16.61
77728;BMP280;68312;53.502;10.030;2023-08-01T11:55:57;99728.19;;;16.76
77728;BMP280;68312;53.502;10.030;2023-08-01T11:58:33;99727.69;;;17.22
77728;BMP280;68312;53.502;10.030;2023-08-01T12:03:48;99708.63;;;18.51
77728;BMP280;68312;53.502;10.030;2023-08-01T12:06:16;99719.22;;;19.27
77728;BMP280;68312;53.502;10.030;2023-08-01T12:08:43;99723.25;;;19.68
77728;BMP280;68312;53.502;10.030;2023-08-01T12:11:24;99710.94;;;20.45
77728;BMP280;68312;53.502;10.030;2023-08-01T12:14:09;99720.63;;;20.35
77728;BMP280;68312;53.502;10.030;2023-08-01T12:16:41;99722.88;;;19.92
77728;BMP280;68312;53.502;10.030;2023-08-01T12:19:20;99706.81;;;19.47
77728;BMP280;68312;53.502;10.030;2023-08-01T12:21:47;99710.34;;;19.07
77728;BMP280;68312;53.502;10.030;2023-08-01T12:24:12;99727.25;;;18.91
77728;BMP280;68312;53.502;10.030;2023-08-01T12:26:38;99735.47;;;18.67
77728;BMP280;68312;53.502;10.030;2023-08-01T12:29:03;99739.75;;;18.57
77728;BMP280;68312;53.502;10.030;2023-08-01T12:31:29;99729.19;;;18.50
77728;BMP280;68312;53.502;10.030;2023-08-01T12:33:54;99730.78;;;18.38
77728;BMP280;68312;53.502;10.030;2023-08-01T12:36:20;99730.69;;;18.05
77728;BMP280;68312;53.502;10.030;2023-08-01T12:38:46;99723.88;;;18.00
77728;BMP280;68312;53.502;10.030;2023-08-01T12:41:12;99737.31;;;17.76
77728;BMP280;68312;53.502;10.030;2023-08-01T12:43:37;99739.72;;;17.43
77728;BMP280;68312;53.502;10.030;2023-08-01T12:46:03;99744.34;;;17.33
77728;BMP280;68312;53.502;10.030;2023-08-01T12:48:29;99739.41;;;17.28
77728;BMP280;68312;53.502;10.030;2023-08-01T12:50:55;99749.75;;;16.88
77728;BMP280;68312;53.502;10.030;2023-08-01T12:53:21;99748.91;;;17.15
77728;BMP280;68312;53.502;10.030;2023-08-01T12:55:48;99752.50;;;17.66
77728;BMP280;68312;53.502;10.030;2023-08-01T12:58:15;99742.09;;;17.98
77728;BMP280;68312;53.502;10.030;2023-08-01T13:00:43;99738.78;;;18.38
77728;BMP280;68312;53.502;10.030;2023-08-01T13:03:09;99729.88;;;18.58
77728;BMP280;68312;53.502;10.030;2023-08-01T13:05:37;99737.09;;;19.26
77728;BMP280;68312;53.502;10.030;2023-08-01T13:08:04;99742.53;;;20.24
77728;BMP280;68312;53.502;10.030;2023-08-01T13:10:34;99742.94;;;20.86
77728;BMP280;68312;53.502;10.030;2023-08-01T13:13:01;99744.78;;;20.89
77728;BMP280;68312;53.502;10.030;2023-08-01T13:15:27;99745.28;;;21.04
77728;BMP280;68312;53.502;10.030;2023-08-01T13:17:53;99735.81;;;21.18
77728;BMP280;68312;53.502;10.030;2023-08-01T13:20:19;99731.50;;;21.75
77728;BMP280;68312;53.502;10.030;2023-08-01T13:22:46;99726.66;;;21.35
77728;BMP280;68312;53.502;10.030;2023-08-01T13:25:13;99734.25;;;21.71
77728;BMP280;68312;53.502;10.030;2023-08-01T13:27:39;99722.50;;;22.44
77728;BMP280;68312;53.502;10.030;2023-08-01T13:30:05;99721.22;;;22.05
77728;BMP280;68312;53.502;10.030;2023-08-01T13:32:31;99722.81;;;21.55
77728;BMP280;68312;53.502;10.030;2023-08-01T13:34:57;99707.31;;;20.96
77728;BMP280;68312;53.502;10.030;2023-08-01T13:37:23;99719.03;;;20.41
77728;BMP280;68312;53.502;10.030;2023-08-01T13:39:48;99721.47;;;19.84
77728;BMP280;68312;53.502;10.030;2023-08-01T13:42:14;99721.66;;;19.44
77728;BMP280;68312;53.502;10.030;2023-08-01T13:44:41;99729.84;;;18.98
77728;BMP280;68312;53.502;10.030;2023-08-01T13:47:07;99744.31;;;18.57
77728;BMP280;68312;53.502;10.030;2023-08-01T13:49:33;99742.94;;;18.39
77728;BMP280;68312;53.502;10.030;2023-08-01T13:51:59;99741.59;;;18.60
77728;BMP280;68312;53.502;10.030;2023-08-01T13:54:25;99744.91;;;19.96
77728;BMP280;68312;53.502;10.030;2023-08-01T13:56:51;99744.78;;;21.28
77728;BMP280;68312;53.502;10.030;2023-08-01T13:59:18;99744.81;;;21.94
77728;BMP280;68312;53.502;10.030;2023-08-01T14:01:45;99744.47;;;21.76